LHX5T EDDM-EDDB
Flight info
| Callsign | LHX5T |
|---|---|
| Flight time | 0h 51m |
| Altitude | 28000 |
| Route | AKINI1S AKINI Y104 MAMOR L132 RUDNO/N0405F300 T203 TIVDA/N0403F290 DCT ETVIS DCT NAVEK DCT GAVLI/N0407F300 T203 ATGUP ATGUP1L |
| Aircraft | A319/M-SDE2E3FGIJ1LORWXY/HB1 |
Departure
| Time | 2026-05-07 19:40 |
|---|---|
| Airport | Munich Airport (EDDM) |
Arrival
| Time | 2026-05-07 20:31 |
|---|---|
| Airport | Berlin Brandenburg Airport (EDDB) |
| Time | Latitude | Longitude | Altitude | Speed | Heading |
|---|---|---|---|---|---|
| 2026-05-07 19:03 | 48.35620 | 11.79722 | 1486 ft | 0 kts | 83° |
| 2026-05-07 19:19 | 48.35620 | 11.79721 | 1485 ft | 0 kts | 83° |
| 2026-05-07 19:26 | 48.35619 | 11.79707 | 1475 ft | 2 kts | 83° |
| 2026-05-07 19:27 | 48.35617 | 11.79682 | 1482 ft | 2 kts | 83° |
| 2026-05-07 19:27 | 48.35615 | 11.79657 | 1475 ft | 2 kts | 83° |
| 2026-05-07 19:27 | 48.35613 | 11.79633 | 1476 ft | 2 kts | 82° |
| 2026-05-07 19:27 | 48.35611 | 11.79612 | 1477 ft | 1 kts | 83° |
| 2026-05-07 19:28 | 48.35611 | 11.79611 | 1477 ft | 0 kts | 83° |
| 2026-05-07 19:32 | 48.35612 | 11.79614 | 1477 ft | 1 kts | 83° |
| 2026-05-07 19:32 | 48.35614 | 11.79616 | 1476 ft | 0 kts | 52° |
| 2026-05-07 19:33 | 48.35617 | 11.79616 | 1475 ft | 0 kts | 21° |
| 2026-05-07 19:33 | 48.35619 | 11.79612 | 1476 ft | 0 kts | 347° |
| 2026-05-07 19:33 | 48.35642 | 11.79596 | 1482 ft | 7 kts | 324° |
| 2026-05-07 19:33 | 48.35703 | 11.79550 | 1477 ft | 12 kts | 344° |
| 2026-05-07 19:34 | 48.35787 | 11.79533 | 1485 ft | 12 kts | 354° |
| 2026-05-07 19:34 | 48.35874 | 11.79517 | 1483 ft | 13 kts | 353° |
| 2026-05-07 19:34 | 48.35977 | 11.79499 | 1480 ft | 17 kts | 353° |
| 2026-05-07 19:34 | 48.36105 | 11.79477 | 1485 ft | 19 kts | 354° |
| 2026-05-07 19:35 | 48.36216 | 11.79534 | 1485 ft | 18 kts | 68° |
| 2026-05-07 19:35 | 48.36232 | 11.79722 | 1485 ft | 18 kts | 84° |
| 2026-05-07 19:35 | 48.36247 | 11.79916 | 1485 ft | 20 kts | 83° |
| 2026-05-07 19:35 | 48.36265 | 11.80143 | 1476 ft | 24 kts | 83° |
| 2026-05-07 19:36 | 48.36284 | 11.80388 | 1485 ft | 24 kts | 84° |
| 2026-05-07 19:36 | 48.36303 | 11.80638 | 1485 ft | 24 kts | 83° |
| 2026-05-07 19:36 | 48.36322 | 11.80888 | 1485 ft | 24 kts | 83° |
| 2026-05-07 19:36 | 48.36342 | 11.81141 | 1485 ft | 24 kts | 84° |
| 2026-05-07 19:37 | 48.36361 | 11.81394 | 1485 ft | 24 kts | 83° |
| 2026-05-07 19:37 | 48.36381 | 11.81649 | 1478 ft | 25 kts | 84° |
| 2026-05-07 19:37 | 48.36397 | 11.81896 | 1485 ft | 20 kts | 98° |
| 2026-05-07 19:37 | 48.36459 | 11.82002 | 1485 ft | 15 kts | 358° |
| 2026-05-07 19:38 | 48.36557 | 11.81984 | 1485 ft | 7 kts | 353° |
| 2026-05-07 19:38 | 48.36563 | 11.81983 | 1485 ft | 0 kts | 353° |
| 2026-05-07 19:39 | 48.36590 | 11.81978 | 1482 ft | 7 kts | 353° |
| 2026-05-07 19:39 | 48.36662 | 11.81927 | 1474 ft | 19 kts | 302° |
| 2026-05-07 19:40 | 48.36651 | 11.81619 | 1480 ft | 46 kts | 263° |
| 2026-05-07 19:40 | 48.36583 | 11.80742 | 1486 ft | 120 kts | 263° |
| 2026-05-07 19:40 | 48.36466 | 11.79187 | 1510 ft | 174 kts | 264° |
| 2026-05-07 19:40 | 48.36326 | 11.77391 | 2159 ft | 177 kts | 264° |
| 2026-05-07 19:41 | 48.36182 | 11.75527 | 2848 ft | 186 kts | 264° |
| 2026-05-07 19:41 | 48.36033 | 11.73489 | 3304 ft | 206 kts | 264° |
| 2026-05-07 19:41 | 48.35871 | 11.71226 | 3726 ft | 229 kts | 264° |
| 2026-05-07 19:41 | 48.35918 | 11.68836 | 4649 ft | 233 kts | 285° |
| 2026-05-07 19:42 | 48.36725 | 11.66727 | 5600 ft | 237 kts | 313° |
| 2026-05-07 19:42 | 48.38122 | 11.65427 | 6606 ft | 241 kts | 341° |
| 2026-05-07 19:42 | 48.39793 | 11.64868 | 7373 ft | 256 kts | 345° |
| 2026-05-07 19:42 | 48.41621 | 11.64313 | 7873 ft | 279 kts | 346° |
| 2026-05-07 19:43 | 48.43535 | 11.63771 | 8884 ft | 279 kts | 346° |
| 2026-05-07 19:43 | 48.45499 | 11.63452 | 9772 ft | 293 kts | 359° |
| 2026-05-07 19:43 | 48.47500 | 11.64200 | 10655 ft | 304 kts | 20° |
| 2026-05-07 19:43 | 48.49394 | 11.65864 | 10914 ft | 334 kts | 30° |
| 2026-05-07 19:44 | 48.51412 | 11.67849 | 11259 ft | 356 kts | 31° |
| 2026-05-07 19:44 | 48.53474 | 11.69990 | 12020 ft | 361 kts | 32° |
| 2026-05-07 19:44 | 48.55536 | 11.72187 | 12902 ft | 364 kts | 33° |
| 2026-05-07 19:44 | 48.57614 | 11.74400 | 13744 ft | 367 kts | 33° |
| 2026-05-07 19:45 | 48.59720 | 11.76624 | 14471 ft | 371 kts | 32° |
| 2026-05-07 19:45 | 48.61856 | 11.78857 | 15192 ft | 375 kts | 32° |
| 2026-05-07 19:45 | 48.64015 | 11.81093 | 15906 ft | 379 kts | 31° |
| 2026-05-07 19:45 | 48.66207 | 11.83354 | 16621 ft | 383 kts | 31° |
| 2026-05-07 19:46 | 48.68386 | 11.85601 | 17322 ft | 386 kts | 31° |
| 2026-05-07 19:46 | 48.70620 | 11.87905 | 18030 ft | 390 kts | 31° |
| 2026-05-07 19:46 | 48.72873 | 11.90233 | 18687 ft | 394 kts | 31° |
| 2026-05-07 19:46 | 48.75149 | 11.92588 | 19312 ft | 397 kts | 31° |
| 2026-05-07 19:47 | 48.77438 | 11.94962 | 19952 ft | 400 kts | 31° |
| 2026-05-07 19:47 | 48.79742 | 11.97356 | 20588 ft | 403 kts | 31° |
| 2026-05-07 19:47 | 48.82067 | 11.99777 | 21220 ft | 407 kts | 31° |
| 2026-05-07 19:47 | 48.84405 | 12.02218 | 21841 ft | 410 kts | 32° |
| 2026-05-07 19:48 | 48.86763 | 12.04684 | 22440 ft | 413 kts | 32° |
| 2026-05-07 19:48 | 48.89107 | 12.07134 | 23014 ft | 416 kts | 32° |
| 2026-05-07 19:48 | 48.91497 | 12.09633 | 23585 ft | 419 kts | 32° |
| 2026-05-07 19:48 | 48.93908 | 12.12155 | 24068 ft | 422 kts | 32° |
| 2026-05-07 19:49 | 48.96332 | 12.14692 | 24542 ft | 424 kts | 32° |
| 2026-05-07 19:49 | 48.98772 | 12.17251 | 25009 ft | 427 kts | 32° |
| 2026-05-07 19:49 | 49.01221 | 12.19827 | 25466 ft | 429 kts | 32° |
| 2026-05-07 19:49 | 49.03685 | 12.22423 | 25934 ft | 432 kts | 32° |
| 2026-05-07 19:50 | 49.06127 | 12.24999 | 26400 ft | 434 kts | 32° |
| 2026-05-07 19:50 | 49.08619 | 12.27628 | 26856 ft | 437 kts | 32° |
| 2026-05-07 19:50 | 49.11125 | 12.30273 | 27314 ft | 439 kts | 32° |
| 2026-05-07 19:50 | 49.13719 | 12.32729 | 27750 ft | 438 kts | 22° |
| 2026-05-07 19:51 | 49.16550 | 12.34451 | 28025 ft | 438 kts | 18° |
| 2026-05-07 19:51 | 49.19394 | 12.36096 | 28073 ft | 435 kts | 18° |
| 2026-05-07 19:51 | 49.25048 | 12.39345 | 28071 ft | 433 kts | 18° |
| 2026-05-07 19:52 | 49.30687 | 12.42588 | 28068 ft | 433 kts | 18° |
| 2026-05-07 19:52 | 49.36280 | 12.45816 | 28067 ft | 432 kts | 18° |
| 2026-05-07 19:53 | 49.41895 | 12.49080 | 28066 ft | 431 kts | 18° |
| 2026-05-07 19:53 | 49.47508 | 12.52339 | 28060 ft | 431 kts | 18° |
| 2026-05-07 19:54 | 49.53106 | 12.55613 | 28055 ft | 430 kts | 18° |
| 2026-05-07 19:54 | 49.58702 | 12.58894 | 28059 ft | 430 kts | 18° |
| 2026-05-07 19:55 | 49.64255 | 12.62158 | 28065 ft | 430 kts | 18° |
| 2026-05-07 19:55 | 49.69880 | 12.65265 | 28051 ft | 428 kts | 15° |
| 2026-05-07 19:56 | 49.75566 | 12.67965 | 28062 ft | 427 kts | 14° |
| 2026-05-07 19:56 | 49.81255 | 12.70607 | 28067 ft | 427 kts | 14° |
| 2026-05-07 19:57 | 49.86883 | 12.73327 | 28058 ft | 426 kts | 15° |
| 2026-05-07 19:57 | 49.92533 | 12.76122 | 28073 ft | 426 kts | 15° |
| 2026-05-07 19:58 | 49.98170 | 12.78920 | 28071 ft | 425 kts | 15° |
| 2026-05-07 19:58 | 50.03797 | 12.81698 | 28071 ft | 424 kts | 15° |
| 2026-05-07 19:59 | 50.09373 | 12.84449 | 28063 ft | 423 kts | 15° |
| 2026-05-07 19:59 | 50.14974 | 12.87224 | 28068 ft | 422 kts | 15° |
| 2026-05-07 20:00 | 50.20569 | 12.90004 | 28069 ft | 421 kts | 15° |
| 2026-05-07 20:00 | 50.26154 | 12.92777 | 28064 ft | 421 kts | 15° |
| 2026-05-07 20:01 | 50.31728 | 12.95554 | 28057 ft | 420 kts | 15° |
| 2026-05-07 20:01 | 50.37260 | 12.98324 | 28056 ft | 420 kts | 15° |
| 2026-05-07 20:02 | 50.42829 | 13.01114 | 28057 ft | 420 kts | 15° |
| 2026-05-07 20:02 | 50.48398 | 13.03906 | 28061 ft | 420 kts | 15° |
| 2026-05-07 20:03 | 50.53963 | 13.06719 | 28066 ft | 420 kts | 15° |
| 2026-05-07 20:03 | 50.59525 | 13.09538 | 28062 ft | 420 kts | 15° |
| 2026-05-07 20:04 | 50.65030 | 13.12327 | 27545 ft | 416 kts | 16° |
| 2026-05-07 20:04 | 50.67790 | 13.13726 | 26613 ft | 418 kts | 16° |
| 2026-05-07 20:04 | 50.70551 | 13.15125 | 25950 ft | 414 kts | 16° |
| 2026-05-07 20:05 | 50.73281 | 13.16508 | 25313 ft | 410 kts | 16° |
| 2026-05-07 20:05 | 50.75982 | 13.17885 | 24685 ft | 406 kts | 16° |
| 2026-05-07 20:05 | 50.78662 | 13.19257 | 24049 ft | 403 kts | 16° |
| 2026-05-07 20:05 | 50.81312 | 13.20616 | 23404 ft | 399 kts | 17° |
| 2026-05-07 20:06 | 50.83946 | 13.21962 | 22718 ft | 396 kts | 17° |
| 2026-05-07 20:06 | 50.86560 | 13.23296 | 22061 ft | 394 kts | 17° |
| 2026-05-07 20:06 | 50.89163 | 13.24624 | 21447 ft | 392 kts | 17° |
| 2026-05-07 20:06 | 50.91720 | 13.25932 | 20866 ft | 390 kts | 17° |
| 2026-05-07 20:07 | 50.94300 | 13.27257 | 20312 ft | 389 kts | 17° |
| 2026-05-07 20:07 | 50.96875 | 13.28578 | 20073 ft | 390 kts | 17° |
| 2026-05-07 20:07 | 50.99456 | 13.29903 | 20067 ft | 390 kts | 17° |
| 2026-05-07 20:07 | 51.02042 | 13.31235 | 20073 ft | 391 kts | 17° |
| 2026-05-07 20:08 | 51.04629 | 13.32571 | 20075 ft | 391 kts | 17° |
| 2026-05-07 20:08 | 51.07213 | 13.33912 | 20073 ft | 391 kts | 17° |
| 2026-05-07 20:08 | 51.09802 | 13.35257 | 20075 ft | 391 kts | 17° |
| 2026-05-07 20:08 | 51.12354 | 13.36580 | 20076 ft | 391 kts | 17° |
| 2026-05-07 20:09 | 51.14940 | 13.37922 | 20075 ft | 391 kts | 17° |
| 2026-05-07 20:09 | 51.17526 | 13.39265 | 20075 ft | 391 kts | 17° |
| 2026-05-07 20:09 | 51.20113 | 13.40609 | 20078 ft | 391 kts | 17° |
| 2026-05-07 20:10 | 51.25285 | 13.43290 | 20020 ft | 390 kts | 17° |
| 2026-05-07 20:10 | 51.27867 | 13.44635 | 19675 ft | 390 kts | 18° |
| 2026-05-07 20:10 | 51.30443 | 13.45978 | 19331 ft | 389 kts | 18° |
| 2026-05-07 20:10 | 51.32977 | 13.47305 | 18994 ft | 388 kts | 18° |
| 2026-05-07 20:11 | 51.35544 | 13.48652 | 18661 ft | 388 kts | 18° |
| 2026-05-07 20:11 | 51.38108 | 13.49995 | 18321 ft | 387 kts | 18° |
| 2026-05-07 20:11 | 51.40663 | 13.51334 | 17936 ft | 386 kts | 18° |
| 2026-05-07 20:11 | 51.43210 | 13.52672 | 17564 ft | 384 kts | 18° |
| 2026-05-07 20:12 | 51.45740 | 13.54001 | 17189 ft | 382 kts | 18° |
| 2026-05-07 20:12 | 51.48258 | 13.55326 | 16818 ft | 380 kts | 18° |
| 2026-05-07 20:12 | 51.50762 | 13.56645 | 16455 ft | 378 kts | 18° |
| 2026-05-07 20:12 | 51.53216 | 13.57943 | 16104 ft | 376 kts | 18° |
| 2026-05-07 20:13 | 51.55692 | 13.59252 | 15748 ft | 374 kts | 18° |
| 2026-05-07 20:13 | 51.58203 | 13.60266 | 15397 ft | 372 kts | 6° |
| 2026-05-07 20:13 | 51.60763 | 13.60098 | 14978 ft | 367 kts | 348° |
| 2026-05-07 20:13 | 51.63129 | 13.58664 | 14460 ft | 364 kts | 329° |
| 2026-05-07 20:14 | 51.65121 | 13.56188 | 13930 ft | 361 kts | 318° |
| 2026-05-07 20:14 | 51.67002 | 13.53511 | 13329 ft | 360 kts | 318° |
| 2026-05-07 20:14 | 51.68871 | 13.50857 | 12768 ft | 357 kts | 318° |
| 2026-05-07 20:14 | 51.70702 | 13.48262 | 12217 ft | 354 kts | 318° |
| 2026-05-07 20:15 | 51.72544 | 13.45655 | 11649 ft | 351 kts | 319° |
| 2026-05-07 20:15 | 51.74372 | 13.43070 | 11100 ft | 348 kts | 319° |
| 2026-05-07 20:15 | 51.76185 | 13.40510 | 10553 ft | 345 kts | 319° |
| 2026-05-07 20:15 | 51.77985 | 13.37963 | 10031 ft | 342 kts | 319° |
| 2026-05-07 20:16 | 51.79731 | 13.35481 | 9883 ft | 327 kts | 319° |
| 2026-05-07 20:16 | 51.81399 | 13.33109 | 9744 ft | 312 kts | 319° |
| 2026-05-07 20:16 | 51.82975 | 13.30864 | 9536 ft | 293 kts | 319° |
| 2026-05-07 20:16 | 51.84459 | 13.28745 | 9040 ft | 285 kts | 319° |
| 2026-05-07 20:17 | 51.85936 | 13.26635 | 8435 ft | 282 kts | 319° |
| 2026-05-07 20:17 | 51.87405 | 13.24538 | 8053 ft | 280 kts | 319° |
| 2026-05-07 20:17 | 51.88869 | 13.22447 | 7857 ft | 280 kts | 319° |
| 2026-05-07 20:17 | 51.90327 | 13.20359 | 7655 ft | 280 kts | 319° |
| 2026-05-07 20:18 | 51.91780 | 13.18276 | 7454 ft | 279 kts | 320° |
| 2026-05-07 20:18 | 51.93230 | 13.16199 | 7251 ft | 278 kts | 320° |
| 2026-05-07 20:18 | 51.94676 | 13.14127 | 7051 ft | 277 kts | 320° |
| 2026-05-07 20:18 | 51.96118 | 13.12060 | 6854 ft | 276 kts | 320° |
| 2026-05-07 20:19 | 51.97537 | 13.10026 | 6656 ft | 275 kts | 320° |
| 2026-05-07 20:19 | 51.98969 | 13.07970 | 6456 ft | 275 kts | 320° |
| 2026-05-07 20:19 | 52.00393 | 13.05925 | 6242 ft | 269 kts | 320° |
| 2026-05-07 20:19 | 52.01746 | 13.03975 | 6024 ft | 251 kts | 320° |
| 2026-05-07 20:20 | 52.03013 | 13.02140 | 5691 ft | 240 kts | 320° |
| 2026-05-07 20:20 | 52.04248 | 13.00351 | 5205 ft | 236 kts | 320° |
| 2026-05-07 20:20 | 52.05459 | 12.98597 | 5008 ft | 233 kts | 320° |
| 2026-05-07 20:20 | 52.06676 | 12.96838 | 4996 ft | 235 kts | 320° |
| 2026-05-07 20:21 | 52.07880 | 12.95099 | 4996 ft | 235 kts | 320° |
| 2026-05-07 20:21 | 52.09102 | 12.93332 | 5001 ft | 235 kts | 320° |
| 2026-05-07 20:21 | 52.10322 | 12.91563 | 4992 ft | 235 kts | 320° |
| 2026-05-07 20:21 | 52.11523 | 12.89821 | 4984 ft | 225 kts | 320° |
| 2026-05-07 20:22 | 52.12664 | 12.88179 | 4987 ft | 216 kts | 322° |
| 2026-05-07 20:22 | 52.13924 | 12.86894 | 4997 ft | 213 kts | 336° |
| 2026-05-07 20:22 | 52.15315 | 12.86102 | 4997 ft | 211 kts | 349° |
| 2026-05-07 20:22 | 52.16766 | 12.85802 | 5001 ft | 210 kts | 0° |
| 2026-05-07 20:23 | 52.18196 | 12.85982 | 4998 ft | 209 kts | 12° |
| 2026-05-07 20:23 | 52.19573 | 12.86632 | 4977 ft | 199 kts | 24° |
| 2026-05-07 20:23 | 52.20749 | 12.87632 | 4769 ft | 186 kts | 34° |
| 2026-05-07 20:23 | 52.21753 | 12.88924 | 4331 ft | 185 kts | 44° |
| 2026-05-07 20:24 | 52.22644 | 12.90629 | 4008 ft | 209 kts | 56° |
| 2026-05-07 20:24 | 52.23364 | 12.92756 | 3958 ft | 219 kts | 67° |
| 2026-05-07 20:24 | 52.23924 | 12.95092 | 4002 ft | 223 kts | 69° |
| 2026-05-07 20:24 | 52.24493 | 12.97440 | 4003 ft | 223 kts | 68° |
| 2026-05-07 20:25 | 52.25051 | 12.99768 | 4002 ft | 223 kts | 69° |
| 2026-05-07 20:25 | 52.25618 | 13.02126 | 4009 ft | 223 kts | 68° |
| 2026-05-07 20:25 | 52.26188 | 13.04480 | 4007 ft | 223 kts | 68° |
| 2026-05-07 20:25 | 52.26760 | 13.06837 | 4005 ft | 223 kts | 68° |
| 2026-05-07 20:26 | 52.27331 | 13.09193 | 4004 ft | 223 kts | 68° |
| 2026-05-07 20:26 | 52.27902 | 13.11548 | 4007 ft | 223 kts | 68° |
| 2026-05-07 20:26 | 52.28460 | 13.13856 | 4007 ft | 211 kts | 68° |
| 2026-05-07 20:26 | 52.28994 | 13.16069 | 4015 ft | 216 kts | 68° |
| 2026-05-07 20:27 | 52.29555 | 13.18391 | 4002 ft | 222 kts | 68° |
| 2026-05-07 20:27 | 52.30116 | 13.20717 | 3798 ft | 222 kts | 68° |
| 2026-05-07 20:27 | 52.30680 | 13.23061 | 3520 ft | 221 kts | 68° |
| 2026-05-07 20:27 | 52.31237 | 13.25377 | 3218 ft | 214 kts | 68° |
| 2026-05-07 20:28 | 52.31769 | 13.27591 | 2932 ft | 204 kts | 68° |
| 2026-05-07 20:28 | 52.32273 | 13.29690 | 2657 ft | 193 kts | 68° |
| 2026-05-07 20:28 | 52.32752 | 13.31688 | 2401 ft | 185 kts | 68° |
| 2026-05-07 20:28 | 52.33204 | 13.33573 | 2154 ft | 174 kts | 68° |
| 2026-05-07 20:29 | 52.33634 | 13.35368 | 1917 ft | 164 kts | 68° |
| 2026-05-07 20:29 | 52.34026 | 13.37005 | 1732 ft | 144 kts | 68° |
| 2026-05-07 20:29 | 52.34366 | 13.38431 | 1529 ft | 130 kts | 68° |
| 2026-05-07 20:29 | 52.34685 | 13.39776 | 1358 ft | 125 kts | 68° |
| 2026-05-07 20:30 | 52.34999 | 13.41092 | 1165 ft | 123 kts | 67° |
| 2026-05-07 20:30 | 52.35311 | 13.42404 | 987 ft | 125 kts | 68° |
| 2026-05-07 20:30 | 52.35624 | 13.43740 | 793 ft | 127 kts | 67° |
| 2026-05-07 20:30 | 52.35953 | 13.45083 | 624 ft | 128 kts | 68° |
| 2026-05-07 20:31 | 52.36273 | 13.46447 | 499 ft | 129 kts | 68° |
| 2026-05-07 20:31 | 52.36602 | 13.47817 | 318 ft | 130 kts | 68° |
| 2026-05-07 20:31 | 52.36927 | 13.49166 | 157 ft | 122 kts | 68° |
| 2026-05-07 20:31 | 52.37142 | 13.50090 | 159 ft | 44 kts | 69° |
| 2026-05-07 20:32 | 52.37227 | 13.50437 | 157 ft | 31 kts | 68° |
| 2026-05-07 20:32 | 52.37307 | 13.50781 | 157 ft | 33 kts | 76° |
| 2026-05-07 20:32 | 52.37296 | 13.51159 | 161 ft | 33 kts | 97° |
| 2026-05-07 20:32 | 52.37270 | 13.51313 | 162 ft | 4 kts | 115° |
| 2026-05-07 20:33 | 52.37238 | 13.51332 | 161 ft | 7 kts | 187° |
| 2026-05-07 20:33 | 52.37191 | 13.51267 | 160 ft | 11 kts | 241° |
| 2026-05-07 20:33 | 52.37158 | 13.51136 | 159 ft | 15 kts | 250° |
| 2026-05-07 20:33 | 52.37112 | 13.50937 | 159 ft | 22 kts | 248° |
| 2026-05-07 20:34 | 52.37056 | 13.50702 | 158 ft | 22 kts | 250° |
| 2026-05-07 20:34 | 52.37005 | 13.50478 | 156 ft | 20 kts | 244° |
| 2026-05-07 20:34 | 52.36954 | 13.50276 | 154 ft | 19 kts | 249° |
| 2026-05-07 20:34 | 52.36940 | 13.50214 | 153 ft | 0 kts | 249° |
| 2026-05-07 20:35 | 52.36934 | 13.50189 | 153 ft | 4 kts | 249° |
| 2026-05-07 20:35 | 52.36896 | 13.50133 | 151 ft | 12 kts | 200° |
| 2026-05-07 20:36 | 52.36797 | 13.50177 | 153 ft | 14 kts | 160° |
| 2026-05-07 20:36 | 52.36709 | 13.50166 | 151 ft | 12 kts | 184° |
| 2026-05-07 20:36 | 52.36635 | 13.50197 | 151 ft | 11 kts | 155° |
| 2026-05-07 20:36 | 52.36559 | 13.50247 | 151 ft | 13 kts | 159° |
| 2026-05-07 20:37 | 52.36477 | 13.50298 | 151 ft | 13 kts | 160° |
| 2026-05-07 20:37 | 52.36421 | 13.50357 | 151 ft | 0 kts | 116° |
| 2026-05-07 20:37 | 52.36421 | 13.50361 | 152 ft | 1 kts | 105° |
| 2026-05-07 20:37 | 52.36422 | 13.50367 | 152 ft | 1 kts | 85° |
| 2026-05-07 20:38 | 52.36426 | 13.50388 | 152 ft | 2 kts | 68° |
| 2026-05-07 20:38 | 52.36436 | 13.50419 | 153 ft | 4 kts | 60° |
| 2026-05-07 20:38 | 52.36452 | 13.50475 | 154 ft | 7 kts | 69° |
| 2026-05-07 20:38 | 52.36464 | 13.50528 | 154 ft | 0 kts | 69° |
| 2026-05-07 20:39 | 52.36465 | 13.50528 | 154 ft | 1 kts | 69° |
| 2026-05-07 20:39 | 52.36467 | 13.50537 | 155 ft | 0 kts | 69° |